sensor_id;sensor_type;location;lat;lon;timestamp;P1;durP1;ratioP1;P2;durP2;ratioP2
55409;SDS011;41279;43.546;16.426;2023-03-01T00:01:29;12.50;;;5.38;;
55409;SDS011;41279;43.546;16.426;2023-03-01T00:03:56;9.95;;;4.88;;
55409;SDS011;41279;43.546;16.426;2023-03-01T00:06:23;10.40;;;5.63;;
55409;SDS011;41279;43.546;16.426;2023-03-01T00:08:49;10.70;;;5.38;;
55409;SDS011;41279;43.546;16.426;2023-03-01T00:11:17;11.68;;;5.03;;
55409;SDS011;41279;43.546;16.426;2023-03-01T00:13:45;10.93;;;5.07;;
55409;SDS011;41279;43.546;16.426;2023-03-01T00:16:13;12.15;;;5.05;;
55409;SDS011;41279;43.546;16.426;2023-03-01T00:18:40;12.57;;;5.47;;
55409;SDS011;41279;43.546;16.426;2023-03-01T00:21:06;9.02;;;4.45;;
55409;SDS011;41279;43.546;16.426;2023-03-01T00:23:33;11.38;;;5.20;;
55409;SDS011;41279;43.546;16.426;2023-03-01T00:25:59;10.75;;;5.18;;
55409;SDS011;41279;43.546;16.426;2023-03-01T00:28:24;9.38;;;4.80;;
55409;SDS011;41279;43.546;16.426;2023-03-01T00:30:50;11.25;;;5.40;;
55409;SDS011;41279;43.546;16.426;2023-03-01T00:33:16;9.82;;;4.70;;
55409;SDS011;41279;43.546;16.426;2023-03-01T00:35:41;11.82;;;5.10;;
55409;SDS011;41279;43.546;16.426;2023-03-01T00:38:07;9.43;;;5.15;;
55409;SDS011;41279;43.546;16.426;2023-03-01T00:40:33;8.40;;;4.70;;
55409;SDS011;41279;43.546;16.426;2023-03-01T00:43:00;9.23;;;4.90;;
55409;SDS011;41279;43.546;16.426;2023-03-01T00:45:27;10.05;;;3.75;;
55409;SDS011;41279;43.546;16.426;2023-03-01T00:47:52;10.10;;;3.70;;
55409;SDS011;41279;43.546;16.426;2023-03-01T00:50:19;9.38;;;4.95;;
55409;SDS011;41279;43.546;16.426;2023-03-01T00:52:44;8.82;;;4.57;;
55409;SDS011;41279;43.546;16.426;2023-03-01T00:55:10;9.77;;;4.65;;
55409;SDS011;41279;43.546;16.426;2023-03-01T00:57:36;11.25;;;4.97;;
55409;SDS011;41279;43.546;16.426;2023-03-01T01:00:03;16.80;;;6.00;;
55409;SDS011;41279;43.546;16.426;2023-03-01T01:02:32;9.70;;;4.68;;
55409;SDS011;41279;43.546;16.426;2023-03-01T01:04:59;10.13;;;5.32;;
55409;SDS011;41279;43.546;16.426;2023-03-01T01:07:24;15.57;;;6.30;;
55409;SDS011;41279;43.546;16.426;2023-03-01T01:09:49;12.80;;;5.28;;
55409;SDS011;41279;43.546;16.426;2023-03-01T01:12:15;15.77;;;6.30;;
55409;SDS011;41279;43.546;16.426;2023-03-01T01:14:41;10.13;;;5.35;;
55409;SDS011;41279;43.546;16.426;2023-03-01T01:17:06;15.45;;;5.38;;
55409;SDS011;41279;43.546;16.426;2023-03-01T01:19:32;10.20;;;5.05;;
55409;SDS011;41279;43.546;16.426;2023-03-01T01:21:57;11.77;;;5.03;;
55409;SDS011;41279;43.546;16.426;2023-03-01T01:24:22;12.88;;;5.47;;
55409;SDS011;41279;43.546;16.426;2023-03-01T01:26:48;11.60;;;5.65;;
55409;SDS011;41279;43.546;16.426;2023-03-01T01:29:13;12.27;;;5.70;;
55409;SDS011;41279;43.546;16.426;2023-03-01T01:31:40;8.98;;;4.95;;
55409;SDS011;41279;43.546;16.426;2023-03-01T01:34:08;11.25;;;5.07;;
55409;SDS011;41279;43.546;16.426;2023-03-01T01:36:38;11.32;;;5.10;;
55409;SDS011;41279;43.546;16.426;2023-03-01T01:39:03;13.85;;;5.82;;
55409;SDS011;41279;43.546;16.426;2023-03-01T01:41:29;14.25;;;5.32;;
55409;SDS011;41279;43.546;16.426;2023-03-01T01:46:44;10.52;;;4.97;;
55409;SDS011;41279;43.546;16.426;2023-03-01T01:49:17;11.27;;;5.50;;
55409;SDS011;41279;43.546;16.426;2023-03-01T01:51:45;11.13;;;5.60;;
55409;SDS011;41279;43.546;16.426;2023-03-01T01:54:14;8.00;;;5.13;;
55409;SDS011;41279;43.546;16.426;2023-03-01T01:56:46;11.13;;;5.72;;
55409;SDS011;41279;43.546;16.426;2023-03-01T01:59:33;13.07;;;5.28;;
55409;SDS011;41279;43.546;16.426;2023-03-01T02:02:00;11.45;;;5.00;;
55409;SDS011;41279;43.546;16.426;2023-03-01T02:04:28;13.27;;;5.80;;
55409;SDS011;41279;43.546;16.426;2023-03-01T02:07:01;11.13;;;5.32;;
55409;SDS011;41279;43.546;16.426;2023-03-01T02:09:33;11.20;;;5.70;;
55409;SDS011;41279;43.546;16.426;2023-03-01T02:12:01;8.55;;;4.80;;
55409;SDS011;41279;43.546;16.426;2023-03-01T02:14:29;15.63;;;5.10;;
55409;SDS011;41279;43.546;16.426;2023-03-01T02:16:54;7.82;;;4.32;;
55409;SDS011;41279;43.546;16.426;2023-03-01T02:19:25;12.38;;;5.25;;
55409;SDS011;41279;43.546;16.426;2023-03-01T02:22:08;8.90;;;5.40;;
55409;SDS011;41279;43.546;16.426;2023-03-01T02:24:54;6.18;;;4.05;;
55409;SDS011;41279;43.546;16.426;2023-03-01T02:27:32;9.18;;;5.00;;
55409;SDS011;41279;43.546;16.426;2023-03-01T02:30:05;8.57;;;5.10;;
55409;SDS011;41279;43.546;16.426;2023-03-01T02:32:33;14.80;;;5.47;;
55409;SDS011;41279;43.546;16.426;2023-03-01T02:35:00;10.30;;;5.22;;
55409;SDS011;41279;43.546;16.426;2023-03-01T02:37:26;10.95;;;5.38;;
55409;SDS011;41279;43.546;16.426;2023-03-01T02:39:57;15.13;;;5.68;;
55409;SDS011;41279;43.546;16.426;2023-03-01T02:42:32;9.02;;;5.15;;
55409;SDS011;41279;43.546;16.426;2023-03-01T02:45:06;11.43;;;5.50;;
55409;SDS011;41279;43.546;16.426;2023-03-01T02:47:32;11.85;;;5.63;;
55409;SDS011;41279;43.546;16.426;2023-03-01T02:49:57;11.20;;;5.63;;
55409;SDS011;41279;43.546;16.426;2023-03-01T02:57:26;10.38;;;5.15;;
55409;SDS011;41279;43.546;16.426;2023-03-01T02:59:57;8.35;;;4.75;;
55409;SDS011;41279;43.546;16.426;2023-03-01T03:02:27;10.48;;;5.20;;
55409;SDS011;41279;43.546;16.426;2023-03-01T03:08:02;11.38;;;5.05;;
55409;SDS011;41279;43.546;16.426;2023-03-01T03:10:29;8.70;;;5.22;;
55409;SDS011;41279;43.546;16.426;2023-03-01T03:12:58;9.35;;;4.53;;
55409;SDS011;41279;43.546;16.426;2023-03-01T03:15:53;5.57;;;4.32;;
55409;SDS011;41279;43.546;16.426;2023-03-01T03:18:20;9.30;;;5.00;;
55409;SDS011;41279;43.546;16.426;2023-03-01T03:20:46;8.32;;;4.78;;
55409;SDS011;41279;43.546;16.426;2023-03-01T03:23:12;12.10;;;4.93;;
55409;SDS011;41279;43.546;16.426;2023-03-01T03:25:38;9.60;;;4.60;;
55409;SDS011;41279;43.546;16.426;2023-03-01T03:28:04;9.95;;;5.30;;
55409;SDS011;41279;43.546;16.426;2023-03-01T03:30:34;13.18;;;4.82;;
55409;SDS011;41279;43.546;16.426;2023-03-01T03:33:01;11.63;;;4.70;;
55409;SDS011;41279;43.546;16.426;2023-03-01T03:35:28;9.43;;;4.75;;
55409;SDS011;41279;43.546;16.426;2023-03-01T03:38:00;8.25;;;4.93;;
55409;SDS011;41279;43.546;16.426;2023-03-01T03:40:34;10.88;;;5.07;;
55409;SDS011;41279;43.546;16.426;2023-03-01T03:43:07;11.98;;;4.90;;
55409;SDS011;41279;43.546;16.426;2023-03-01T03:45:34;13.07;;;5.55;;
55409;SDS011;41279;43.546;16.426;2023-03-01T03:48:01;8.27;;;4.53;;
55409;SDS011;41279;43.546;16.426;2023-03-01T03:50:27;11.95;;;5.28;;
55409;SDS011;41279;43.546;16.426;2023-03-01T03:52:53;12.80;;;5.15;;
55409;SDS011;41279;43.546;16.426;2023-03-01T03:55:18;11.00;;;4.90;;
55409;SDS011;41279;43.546;16.426;2023-03-01T03:57:45;7.22;;;4.53;;
55409;SDS011;41279;43.546;16.426;2023-03-01T04:00:19;7.30;;;4.90;;
55409;SDS011;41279;43.546;16.426;2023-03-01T04:02:46;11.35;;;4.43;;
55409;SDS011;41279;43.546;16.426;2023-03-01T04:05:13;13.05;;;5.47;;
55409;SDS011;41279;43.546;16.426;2023-03-01T04:07:41;12.98;;;4.70;;
55409;SDS011;41279;43.546;16.426;2023-03-01T04:10:09;9.65;;;4.90;;
55409;SDS011;41279;43.546;16.426;2023-03-01T04:12:36;12.40;;;5.03;;
55409;SDS011;41279;43.546;16.426;2023-03-01T04:15:02;9.70;;;4.80;;
55409;SDS011;41279;43.546;16.426;2023-03-01T04:17:38;9.98;;;4.78;;
55409;SDS011;41279;43.546;16.426;2023-03-01T04:20:04;10.80;;;4.93;;
55409;SDS011;41279;43.546;16.426;2023-03-01T04:22:30;8.73;;;4.75;;
55409;SDS011;41279;43.546;16.426;2023-03-01T04:24:57;11.70;;;5.13;;
55409;SDS011;41279;43.546;16.426;2023-03-01T04:27:23;11.60;;;5.15;;
55409;SDS011;41279;43.546;16.426;2023-03-01T04:29:48;13.93;;;5.20;;
55409;SDS011;41279;43.546;16.426;2023-03-01T04:32:13;10.75;;;5.07;;
55409;SDS011;41279;43.546;16.426;2023-03-01T04:34:41;14.05;;;5.25;;
55409;SDS011;41279;43.546;16.426;2023-03-01T04:37:06;15.50;;;6.47;;
55409;SDS011;41279;43.546;16.426;2023-03-01T04:39:32;9.95;;;5.45;;
55409;SDS011;41279;43.546;16.426;2023-03-01T04:41:57;11.18;;;5.30;;
55409;SDS011;41279;43.546;16.426;2023-03-01T04:44:23;10.05;;;5.15;;
55409;SDS011;41279;43.546;16.426;2023-03-01T04:46:49;9.63;;;5.72;;
55409;SDS011;41279;43.546;16.426;2023-03-01T04:49:15;11.13;;;5.47;;
55409;SDS011;41279;43.546;16.426;2023-03-01T04:51:41;7.82;;;4.78;;
55409;SDS011;41279;43.546;16.426;2023-03-01T04:54:06;8.13;;;4.70;;
55409;SDS011;41279;43.546;16.426;2023-03-01T04:56:33;11.48;;;5.22;;
55409;SDS011;41279;43.546;16.426;2023-03-01T04:58:59;14.10;;;5.15;;
55409;SDS011;41279;43.546;16.426;2023-03-01T05:01:25;14.57;;;5.07;;
55409;SDS011;41279;43.546;16.426;2023-03-01T05:03:51;12.15;;;4.95;;
55409;SDS011;41279;43.546;16.426;2023-03-01T05:06:17;12.68;;;5.00;;
55409;SDS011;41279;43.546;16.426;2023-03-01T05:08:44;10.35;;;5.07;;
55409;SDS011;41279;43.546;16.426;2023-03-01T05:11:10;11.68;;;5.53;;
55409;SDS011;41279;43.546;16.426;2023-03-01T05:13:37;9.07;;;5.32;;
55409;SDS011;41279;43.546;16.426;2023-03-01T05:16:04;11.90;;;5.10;;
55409;SDS011;41279;43.546;16.426;2023-03-01T05:18:31;15.77;;;5.60;;
55409;SDS011;41279;43.546;16.426;2023-03-01T05:21:02;16.33;;;6.47;;
55409;SDS011;41279;43.546;16.426;2023-03-01T05:23:33;10.57;;;5.05;;
55409;SDS011;41279;43.546;16.426;2023-03-01T05:26:00;13.52;;;5.50;;
55409;SDS011;41279;43.546;16.426;2023-03-01T05:28:26;13.73;;;5.38;;
55409;SDS011;41279;43.546;16.426;2023-03-01T05:30:53;11.52;;;4.63;;
55409;SDS011;41279;43.546;16.426;2023-03-01T05:33:19;12.63;;;4.78;;
55409;SDS011;41279;43.546;16.426;2023-03-01T05:35:47;14.70;;;5.38;;
55409;SDS011;41279;43.546;16.426;2023-03-01T05:38:13;8.57;;;4.10;;
55409;SDS011;41279;43.546;16.426;2023-03-01T05:40:40;11.75;;;4.82;;
55409;SDS011;41279;43.546;16.426;2023-03-01T05:43:07;10.82;;;4.72;;
55409;SDS011;41279;43.546;16.426;2023-03-01T05:45:32;12.90;;;4.38;;
55409;SDS011;41279;43.546;16.426;2023-03-01T05:48:00;11.18;;;5.15;;
55409;SDS011;41279;43.546;16.426;2023-03-01T05:50:27;10.27;;;4.80;;
55409;SDS011;41279;43.546;16.426;2023-03-01T05:53:01;13.43;;;5.22;;
55409;SDS011;41279;43.546;16.426;2023-03-01T05:55:33;12.65;;;4.88;;
55409;SDS011;41279;43.546;16.426;2023-03-01T05:57:59;15.30;;;4.80;;
55409;SDS011;41279;43.546;16.426;2023-03-01T06:00:26;15.68;;;4.80;;
55409;SDS011;41279;43.546;16.426;2023-03-01T06:02:56;13.18;;;4.95;;
55409;SDS011;41279;43.546;16.426;2023-03-01T06:05:21;9.00;;;4.28;;
55409;SDS011;41279;43.546;16.426;2023-03-01T06:07:48;8.88;;;4.10;;
55409;SDS011;41279;43.546;16.426;2023-03-01T06:10:15;11.55;;;4.80;;
55409;SDS011;41279;43.546;16.426;2023-03-01T06:12:41;10.80;;;4.85;;
55409;SDS011;41279;43.546;16.426;2023-03-01T06:15:08;12.10;;;4.95;;
55409;SDS011;41279;43.546;16.426;2023-03-01T06:17:36;7.05;;;4.28;;
55409;SDS011;41279;43.546;16.426;2023-03-01T06:20:04;13.48;;;4.82;;
55409;SDS011;41279;43.546;16.426;2023-03-01T06:22:30;8.98;;;4.97;;
55409;SDS011;41279;43.546;16.426;2023-03-01T06:24:56;7.10;;;4.38;;
55409;SDS011;41279;43.546;16.426;2023-03-01T06:27:21;11.73;;;4.63;;
55409;SDS011;41279;43.546;16.426;2023-03-01T06:29:47;13.85;;;4.78;;
55409;SDS011;41279;43.546;16.426;2023-03-01T06:32:13;11.20;;;4.97;;
55409;SDS011;41279;43.546;16.426;2023-03-01T06:34:39;9.55;;;3.97;;
55409;SDS011;41279;43.546;16.426;2023-03-01T06:37:04;11.93;;;4.63;;
55409;SDS011;41279;43.546;16.426;2023-03-01T06:39:31;13.80;;;5.60;;
55409;SDS011;41279;43.546;16.426;2023-03-01T06:41:57;12.77;;;4.80;;
55409;SDS011;41279;43.546;16.426;2023-03-01T06:44:22;15.52;;;5.07;;
55409;SDS011;41279;43.546;16.426;2023-03-01T06:46:48;12.10;;;4.80;;
55409;SDS011;41279;43.546;16.426;2023-03-01T06:49:13;12.43;;;4.75;;
55409;SDS011;41279;43.546;16.426;2023-03-01T06:51:41;8.10;;;4.70;;
55409;SDS011;41279;43.546;16.426;2023-03-01T06:54:06;16.42;;;4.35;;
55409;SDS011;41279;43.546;16.426;2023-03-01T06:56:32;7.93;;;4.72;;
55409;SDS011;41279;43.546;16.426;2023-03-01T06:58:57;11.57;;;5.55;;
55409;SDS011;41279;43.546;16.426;2023-03-01T07:01:23;11.70;;;5.25;;
55409;SDS011;41279;43.546;16.426;2023-03-01T07:03:49;10.65;;;5.78;;
55409;SDS011;41279;43.546;16.426;2023-03-01T07:06:14;13.02;;;5.45;;
55409;SDS011;41279;43.546;16.426;2023-03-01T07:08:40;8.60;;;5.88;;
55409;SDS011;41279;43.546;16.426;2023-03-01T07:11:05;11.00;;;7.75;;
55409;SDS011;41279;43.546;16.426;2023-03-01T07:13:31;11.88;;;8.55;;
55409;SDS011;41279;43.546;16.426;2023-03-01T07:15:57;10.90;;;7.50;;
55409;SDS011;41279;43.546;16.426;2023-03-01T07:18:22;11.18;;;7.65;;
55409;SDS011;41279;43.546;16.426;2023-03-01T07:20:48;16.30;;;6.50;;
55409;SDS011;41279;43.546;16.426;2023-03-01T07:23:13;13.20;;;6.50;;
55409;SDS011;41279;43.546;16.426;2023-03-01T07:25:40;11.65;;;5.28;;
55409;SDS011;41279;43.546;16.426;2023-03-01T07:28:05;11.38;;;4.82;;
55409;SDS011;41279;43.546;16.426;2023-03-01T07:30:31;12.80;;;4.03;;
55409;SDS011;41279;43.546;16.426;2023-03-01T07:32:57;8.88;;;4.05;;
55409;SDS011;41279;43.546;16.426;2023-03-01T07:35:24;10.48;;;3.60;;
55409;SDS011;41279;43.546;16.426;2023-03-01T07:37:51;12.88;;;4.68;;
55409;SDS011;41279;43.546;16.426;2023-03-01T07:40:16;10.20;;;4.00;;
55409;SDS011;41279;43.546;16.426;2023-03-01T07:42:42;8.27;;;3.13;;
55409;SDS011;41279;43.546;16.426;2023-03-01T07:45:08;11.10;;;4.00;;
55409;SDS011;41279;43.546;16.426;2023-03-01T07:47:34;7.78;;;3.35;;
55409;SDS011;41279;43.546;16.426;2023-03-01T07:50:00;9.85;;;3.80;;
55409;SDS011;41279;43.546;16.426;2023-03-01T07:52:26;8.77;;;4.10;;
55409;SDS011;41279;43.546;16.426;2023-03-01T07:54:52;11.75;;;3.97;;
55409;SDS011;41279;43.546;16.426;2023-03-01T07:57:17;11.10;;;4.15;;
55409;SDS011;41279;43.546;16.426;2023-03-01T07:59:43;13.85;;;3.60;;
55409;SDS011;41279;43.546;16.426;2023-03-01T08:02:09;11.80;;;4.20;;
55409;SDS011;41279;43.546;16.426;2023-03-01T08:04:35;12.25;;;4.85;;
55409;SDS011;41279;43.546;16.426;2023-03-01T08:07:01;13.35;;;4.50;;
55409;SDS011;41279;43.546;16.426;2023-03-01T08:09:29;13.15;;;4.40;;
55409;SDS011;41279;43.546;16.426;2023-03-01T08:11:56;13.05;;;4.07;;
55409;SDS011;41279;43.546;16.426;2023-03-01T08:14:21;14.63;;;4.03;;
55409;SDS011;41279;43.546;16.426;2023-03-01T08:16:48;10.32;;;4.18;;
55409;SDS011;41279;43.546;16.426;2023-03-01T08:19:15;11.13;;;4.75;;
55409;SDS011;41279;43.546;16.426;2023-03-01T08:21:40;10.98;;;4.45;;
55409;SDS011;41279;43.546;16.426;2023-03-01T08:24:06;12.75;;;4.35;;
55409;SDS011;41279;43.546;16.426;2023-03-01T08:26:32;10.02;;;4.25;;
55409;SDS011;41279;43.546;16.426;2023-03-01T08:28:59;12.50;;;4.90;;
55409;SDS011;41279;43.546;16.426;2023-03-01T08:31:26;12.27;;;5.20;;
55409;SDS011;41279;43.546;16.426;2023-03-01T08:34:03;9.77;;;4.65;;
55409;SDS011;41279;43.546;16.426;2023-03-01T08:36:32;9.57;;;4.28;;
55409;SDS011;41279;43.546;16.426;2023-03-01T08:39:00;11.07;;;5.13;;
55409;SDS011;41279;43.546;16.426;2023-03-01T08:41:27;12.05;;;3.92;;
55409;SDS011;41279;43.546;16.426;2023-03-01T08:43:53;9.35;;;3.28;;
55409;SDS011;41279;43.546;16.426;2023-03-01T08:46:23;8.40;;;3.47;;
55409;SDS011;41279;43.546;16.426;2023-03-01T08:48:50;8.88;;;3.50;;
55409;SDS011;41279;43.546;16.426;2023-03-01T08:51:16;11.70;;;4.32;;
55409;SDS011;41279;43.546;16.426;2023-03-01T08:53:43;13.32;;;4.28;;
55409;SDS011;41279;43.546;16.426;2023-03-01T08:56:09;8.63;;;3.95;;
55409;SDS011;41279;43.546;16.426;2023-03-01T08:58:35;6.57;;;3.45;;
55409;SDS011;41279;43.546;16.426;2023-03-01T09:01:06;10.57;;;4.15;;
55409;SDS011;41279;43.546;16.426;2023-03-01T09:03:33;7.68;;;3.30;;
55409;SDS011;41279;43.546;16.426;2023-03-01T09:06:02;6.20;;;3.13;;
55409;SDS011;41279;43.546;16.426;2023-03-01T09:08:29;7.15;;;3.70;;
55409;SDS011;41279;43.546;16.426;2023-03-01T09:10:55;3.90;;;2.38;;
55409;SDS011;41279;43.546;16.426;2023-03-01T09:13:21;5.72;;;2.60;;
55409;SDS011;41279;43.546;16.426;2023-03-01T09:15:49;6.82;;;2.67;;
55409;SDS011;41279;43.546;16.426;2023-03-01T09:18:36;8.45;;;2.55;;
55409;SDS011;41279;43.546;16.426;2023-03-01T09:21:10;4.50;;;1.67;;
55409;SDS011;41279;43.546;16.426;2023-03-01T09:23:37;7.20;;;2.53;;
55409;SDS011;41279;43.546;16.426;2023-03-01T09:26:05;5.82;;;1.88;;
55409;SDS011;41279;43.546;16.426;2023-03-01T09:28:33;4.05;;;2.25;;
55409;SDS011;41279;43.546;16.426;2023-03-01T09:31:00;4.78;;;2.17;;
55409;SDS011;41279;43.546;16.426;2023-03-01T09:33:27;4.32;;;2.20;;
55409;SDS011;41279;43.546;16.426;2023-03-01T09:38:23;4.72;;;2.13;;
55409;SDS011;41279;43.546;16.426;2023-03-01T09:40:49;5.88;;;2.22;;
55409;SDS011;41279;43.546;16.426;2023-03-01T09:45:59;4.82;;;1.92;;
55409;SDS011;41279;43.546;16.426;2023-03-01T09:48:31;3.45;;;1.85;;
55409;SDS011;41279;43.546;16.426;2023-03-01T09:51:04;5.25;;;1.80;;
55409;SDS011;41279;43.546;16.426;2023-03-01T09:53:34;4.57;;;2.08;;
55409;SDS011;41279;43.546;16.426;2023-03-01T09:56:05;6.85;;;3.10;;
55409;SDS011;41279;43.546;16.426;2023-03-01T10:01:18;3.15;;;1.70;;
55409;SDS011;41279;43.546;16.426;2023-03-01T10:06:25;3.97;;;2.35;;
55409;SDS011;41279;43.546;16.426;2023-03-01T10:09:02;6.95;;;3.42;;
55409;SDS011;41279;43.546;16.426;2023-03-01T10:11:33;7.75;;;2.80;;
55409;SDS011;41279;43.546;16.426;2023-03-01T10:14:03;11.13;;;3.40;;
55409;SDS011;41279;43.546;16.426;2023-03-01T10:19:21;6.53;;;2.92;;
55409;SDS011;41279;43.546;16.426;2023-03-01T10:21:50;6.53;;;2.67;;
55409;SDS011;41279;43.546;16.426;2023-03-01T10:24:17;5.53;;;2.42;;
55409;SDS011;41279;43.546;16.426;2023-03-01T10:29:30;6.45;;;2.97;;
55409;SDS011;41279;43.546;16.426;2023-03-01T10:32:02;8.25;;;3.10;;
55409;SDS011;41279;43.546;16.426;2023-03-01T10:34:32;5.15;;;2.28;;
55409;SDS011;41279;43.546;16.426;2023-03-01T10:37:13;6.03;;;2.60;;
55409;SDS011;41279;43.546;16.426;2023-03-01T10:42:38;4.20;;;2.33;;
55409;SDS011;41279;43.546;16.426;2023-03-01T10:45:27;5.63;;;2.42;;
55409;SDS011;41279;43.546;16.426;2023-03-01T10:48:11;6.10;;;2.70;;
55409;SDS011;41279;43.546;16.426;2023-03-01T10:50:47;6.82;;;2.75;;
55409;SDS011;41279;43.546;16.426;2023-03-01T10:53:34;5.05;;;2.40;;
55409;SDS011;41279;43.546;16.426;2023-03-01T10:56:07;5.28;;;2.20;;
55409;SDS011;41279;43.546;16.426;2023-03-01T10:58:36;3.33;;;1.90;;
55409;SDS011;41279;43.546;16.426;2023-03-01T11:03:34;4.05;;;1.90;;
55409;SDS011;41279;43.546;16.426;2023-03-01T11:13:38;4.80;;;2.40;;
55409;SDS011;41279;43.546;16.426;2023-03-01T11:16:17;5.00;;;1.63;;
55409;SDS011;41279;43.546;16.426;2023-03-01T11:18:56;6.30;;;2.15;;
55409;SDS011;41279;43.546;16.426;2023-03-01T11:21:45;6.07;;;2.00;;
55409;SDS011;41279;43.546;16.426;2023-03-01T11:24:17;4.30;;;1.63;;
55409;SDS011;41279;43.546;16.426;2023-03-01T11:26:45;4.18;;;2.00;;
55409;SDS011;41279;43.546;16.426;2023-03-01T11:32:01;3.63;;;1.60;;
55409;SDS011;41279;43.546;16.426;2023-03-01T11:37:01;5.03;;;2.42;;
55409;SDS011;41279;43.546;16.426;2023-03-01T11:42:13;7.07;;;2.67;;
55409;SDS011;41279;43.546;16.426;2023-03-01T11:44:39;5.10;;;2.60;;
55409;SDS011;41279;43.546;16.426;2023-03-01T11:47:12;5.07;;;2.17;;
55409;SDS011;41279;43.546;16.426;2023-03-01T11:52:18;4.28;;;2.03;;
55409;SDS011;41279;43.546;16.426;2023-03-01T11:57:51;3.08;;;1.77;;
55409;SDS011;41279;43.546;16.426;2023-03-01T12:41:57;4.53;;;1.70;;
55409;SDS011;41279;43.546;16.426;2023-03-01T12:47:38;4.05;;;1.60;;
55409;SDS011;41279;43.546;16.426;2023-03-01T12:50:21;2.72;;;1.77;;
55409;SDS011;41279;43.546;16.426;2023-03-01T12:52:57;3.27;;;1.70;;
55409;SDS011;41279;43.546;16.426;2023-03-01T12:58:27;3.25;;;1.70;;
55409;SDS011;41279;43.546;16.426;2023-03-01T13:11:35;3.20;;;1.48;;
55409;SDS011;41279;43.546;16.426;2023-03-01T13:16:45;4.30;;;1.55;;
55409;SDS011;41279;43.546;16.426;2023-03-01T13:19:20;3.60;;;1.55;;
55409;SDS011;41279;43.546;16.426;2023-03-01T13:21:48;3.33;;;1.40;;
55409;SDS011;41279;43.546;16.426;2023-03-01T13:27:08;3.58;;;1.88;;
55409;SDS011;41279;43.546;16.426;2023-03-01T13:29:51;3.28;;;1.60;;
55409;SDS011;41279;43.546;16.426;2023-03-01T13:32:22;2.15;;;1.40;;
55409;SDS011;41279;43.546;16.426;2023-03-01T13:34:53;5.40;;;2.45;;
55409;SDS011;41279;43.546;16.426;2023-03-01T13:37:24;3.50;;;1.45;;
55409;SDS011;41279;43.546;16.426;2023-03-01T13:39:56;5.90;;;2.40;;
55409;SDS011;41279;43.546;16.426;2023-03-01T13:42:34;4.88;;;2.03;;
55409;SDS011;41279;43.546;16.426;2023-03-01T13:45:15;3.60;;;1.80;;
55409;SDS011;41279;43.546;16.426;2023-03-01T13:48:03;2.53;;;1.38;;
55409;SDS011;41279;43.546;16.426;2023-03-01T13:50:43;5.53;;;1.92;;
55409;SDS011;41279;43.546;16.426;2023-03-01T13:53:16;4.75;;;1.60;;
55409;SDS011;41279;43.546;16.426;2023-03-01T13:55:55;4.05;;;1.90;;
55409;SDS011;41279;43.546;16.426;2023-03-01T14:01:21;10.18;;;6.00;;
55409;SDS011;41279;43.546;16.426;2023-03-01T14:03:51;5.38;;;2.78;;
55409;SDS011;41279;43.546;16.426;2023-03-01T14:06:19;4.22;;;1.63;;
55409;SDS011;41279;43.546;16.426;2023-03-01T14:08:47;5.43;;;2.22;;
55409;SDS011;41279;43.546;16.426;2023-03-01T14:16:44;4.70;;;2.13;;
55409;SDS011;41279;43.546;16.426;2023-03-01T14:19:25;10.85;;;4.85;;
55409;SDS011;41279;43.546;16.426;2023-03-01T14:21:59;10.07;;;3.70;;
55409;SDS011;41279;43.546;16.426;2023-03-01T14:24:27;5.63;;;2.70;;
55409;SDS011;41279;43.546;16.426;2023-03-01T14:26:53;3.80;;;2.00;;
55409;SDS011;41279;43.546;16.426;2023-03-01T14:29:25;6.05;;;2.65;;
55409;SDS011;41279;43.546;16.426;2023-03-01T14:31:51;5.03;;;1.95;;
55409;SDS011;41279;43.546;16.426;2023-03-01T14:34:18;5.53;;;1.70;;
55409;SDS011;41279;43.546;16.426;2023-03-01T14:36:46;3.13;;;1.58;;
55409;SDS011;41279;43.546;16.426;2023-03-01T14:39:23;3.58;;;1.70;;
55409;SDS011;41279;43.546;16.426;2023-03-01T14:41:51;3.75;;;1.60;;
55409;SDS011;41279;43.546;16.426;2023-03-01T14:44:21;4.95;;;2.20;;
55409;SDS011;41279;43.546;16.426;2023-03-01T14:46:53;2.97;;;1.75;;
55409;SDS011;41279;43.546;16.426;2023-03-01T14:49:25;4.10;;;2.00;;
55409;SDS011;41279;43.546;16.426;2023-03-01T14:51:57;3.65;;;1.80;;
55409;SDS011;41279;43.546;16.426;2023-03-01T14:54:28;3.60;;;1.90;;
55409;SDS011;41279;43.546;16.426;2023-03-01T14:57:03;5.30;;;2.30;;
55409;SDS011;41279;43.546;16.426;2023-03-01T14:59:28;5.15;;;2.10;;
55409;SDS011;41279;43.546;16.426;2023-03-01T15:01:55;4.68;;;2.22;;
55409;SDS011;41279;43.546;16.426;2023-03-01T15:04:23;4.45;;;2.28;;
55409;SDS011;41279;43.546;16.426;2023-03-01T15:06:51;5.22;;;2.00;;
55409;SDS011;41279;43.546;16.426;2023-03-01T15:09:19;4.78;;;2.40;;
55409;SDS011;41279;43.546;16.426;2023-03-01T15:11:46;7.18;;;2.28;;
55409;SDS011;41279;43.546;16.426;2023-03-01T15:17:20;4.65;;;2.20;;
55409;SDS011;41279;43.546;16.426;2023-03-01T15:19:59;4.97;;;2.08;;
55409;SDS011;41279;43.546;16.426;2023-03-01T15:22:27;2.63;;;1.38;;
55409;SDS011;41279;43.546;16.426;2023-03-01T15:24:53;4.05;;;1.83;;
55409;SDS011;41279;43.546;16.426;2023-03-01T15:27:20;5.63;;;1.85;;
55409;SDS011;41279;43.546;16.426;2023-03-01T15:29:49;3.10;;;1.60;;
55409;SDS011;41279;43.546;16.426;2023-03-01T15:32:25;4.63;;;2.03;;
55409;SDS011;41279;43.546;16.426;2023-03-01T15:34:54;6.03;;;2.13;;
55409;SDS011;41279;43.546;16.426;2023-03-01T15:43:36;4.22;;;1.92;;
55409;SDS011;41279;43.546;16.426;2023-03-01T15:46:05;4.90;;;1.92;;
55409;SDS011;41279;43.546;16.426;2023-03-01T15:48:48;5.40;;;1.90;;
55409;SDS011;41279;43.546;16.426;2023-03-01T15:51:34;3.60;;;2.00;;
55409;SDS011;41279;43.546;16.426;2023-03-01T15:54:06;4.03;;;1.92;;
55409;SDS011;41279;43.546;16.426;2023-03-01T15:56:41;6.03;;;2.50;;
55409;SDS011;41279;43.546;16.426;2023-03-01T15:59:08;4.82;;;2.80;;
55409;SDS011;41279;43.546;16.426;2023-03-01T16:01:36;6.57;;;2.67;;
55409;SDS011;41279;43.546;16.426;2023-03-01T16:04:02;5.43;;;2.53;;
55409;SDS011;41279;43.546;16.426;2023-03-01T16:06:27;7.43;;;2.92;;
55409;SDS011;41279;43.546;16.426;2023-03-01T16:08:53;6.43;;;2.67;;
55409;SDS011;41279;43.546;16.426;2023-03-01T16:11:19;5.88;;;3.17;;
55409;SDS011;41279;43.546;16.426;2023-03-01T16:13:45;7.82;;;3.30;;
55409;SDS011;41279;43.546;16.426;2023-03-01T16:16:27;7.03;;;2.50;;
55409;SDS011;41279;43.546;16.426;2023-03-01T16:18:56;8.38;;;3.00;;
55409;SDS011;41279;43.546;16.426;2023-03-01T16:21:25;7.53;;;4.10;;
55409;SDS011;41279;43.546;16.426;2023-03-01T16:23:51;5.65;;;2.10;;
55409;SDS011;41279;43.546;16.426;2023-03-01T16:26:17;4.10;;;2.13;;
55409;SDS011;41279;43.546;16.426;2023-03-01T16:28:43;7.95;;;3.05;;
55409;SDS011;41279;43.546;16.426;2023-03-01T16:31:10;4.80;;;2.63;;
55409;SDS011;41279;43.546;16.426;2023-03-01T16:33:36;3.85;;;2.10;;
55409;SDS011;41279;43.546;16.426;2023-03-01T16:36:08;6.05;;;2.55;;
55409;SDS011;41279;43.546;16.426;2023-03-01T16:38:36;6.32;;;2.60;;
55409;SDS011;41279;43.546;16.426;2023-03-01T16:41:02;5.57;;;2.20;;
55409;SDS011;41279;43.546;16.426;2023-03-01T16:43:28;8.60;;;3.97;;
55409;SDS011;41279;43.546;16.426;2023-03-01T16:45:54;8.77;;;4.80;;
55409;SDS011;41279;43.546;16.426;2023-03-01T16:48:19;4.30;;;2.47;;
55409;SDS011;41279;43.546;16.426;2023-03-01T16:50:45;6.60;;;3.83;;
55409;SDS011;41279;43.546;16.426;2023-03-01T16:53:10;9.43;;;6.07;;